Bodega, California
Current Conditions -  °F | °C
As of 4:53 PM on Wednesday 22 Oct 2014 (Local Time) from KSTS Reporting Station
Broken Clouds Broken Clouds  
Wind Chill: 71°   Ceiling: 25000
Heat Index: 71°   Visibility: 10mi
Dew Point: 54°   Wind: 8mph
Humidity: 55%   Direction: 220°SW
Pressure: 29.99"   Gusts: NA
Location:  38.35°N, 122.97°W
Report Text: KSTS 222353Z 22007KT 10SM SCT050 BKN250 22/12 A2999 RMK AO2 SLP151 T02170122 10250 20161 55009
Loading
Personal Weather Stations






























Interactive Weather Map
Tropical Storm Tracking
New forecast layout! Learn more

10-Day Weather Forecast

Advertisements
Track Severe Weather on mobile